createdAt,value
2023-01-25T00:01:32.765Z,2.52
2023-01-25T00:04:58.047Z,2.55
2023-01-25T00:08:23.338Z,2.57
2023-01-25T00:11:48.696Z,2.58
2023-01-25T00:15:13.992Z,2.57
2023-01-25T00:18:39.287Z,2.58
2023-01-25T00:22:04.598Z,2.55
2023-01-25T00:25:29.888Z,2.51
2023-01-25T00:28:55.216Z,2.51
2023-01-25T00:32:20.646Z,2.59
2023-01-25T00:35:45.773Z,2.61
2023-01-25T00:39:11.097Z,2.57
2023-01-25T00:42:36.416Z,2.56
2023-01-25T00:46:01.849Z,2.61
2023-01-25T00:49:27.059Z,2.66
2023-01-25T00:52:52.354Z,2.64
2023-01-25T00:56:17.638Z,2.63
2023-01-25T00:59:42.948Z,2.64
2023-01-25T01:03:08.267Z,2.65
2023-01-25T01:06:33.537Z,2.71
2023-01-25T01:09:58.838Z,2.75
2023-01-25T01:13:24.142Z,2.81
2023-01-25T01:16:49.492Z,2.88
2023-01-25T01:20:14.765Z,2.86
2023-01-25T01:23:40.050Z,2.85
2023-01-25T01:27:05.345Z,2.85
2023-01-25T01:30:31.444Z,2.85
2023-01-25T01:33:56.800Z,2.83
2023-01-25T01:37:22.139Z,2.85
2023-01-25T01:40:47.440Z,2.83
2023-01-25T01:44:12.711Z,2.81
2023-01-25T01:47:37.975Z,2.8
2023-01-25T01:51:03.238Z,2.76
2023-01-25T01:54:28.542Z,2.73
2023-01-25T01:57:53.801Z,2.75
2023-01-25T02:01:19.160Z,2.58
2023-01-25T02:04:44.385Z,2.48
2023-01-25T02:08:09.644Z,2.45
2023-01-25T02:11:34.943Z,2.44
2023-01-25T02:15:00.211Z,2.47
2023-01-25T02:18:25.487Z,2.36
2023-01-25T02:21:50.775Z,2.2
2023-01-25T02:25:16.062Z,2.11
2023-01-25T02:28:41.381Z,2.14
2023-01-25T02:32:08.400Z,2.2
2023-01-25T02:35:33.603Z,2.26
2023-01-25T02:38:58.877Z,2.35
2023-01-25T02:42:24.125Z,2.41
2023-01-25T02:45:49.473Z,2.48
2023-01-25T02:49:14.635Z,2.51
2023-01-25T02:52:39.874Z,2.54
2023-01-25T02:56:05.135Z,2.57
2023-01-25T02:59:30.384Z,2.57
2023-01-25T03:02:55.755Z,2.52
2023-01-25T03:06:20.924Z,2.42
2023-01-25T03:09:46.167Z,2.39
2023-01-25T03:13:11.426Z,2.4
2023-01-25T03:16:36.764Z,2.43
2023-01-25T03:20:02.005Z,2.48
2023-01-25T03:23:27.193Z,2.49
2023-01-25T03:26:52.455Z,2.42
2023-01-25T03:30:17.721Z,2.43
2023-01-25T03:33:43.012Z,2.36
2023-01-25T03:37:08.288Z,2.3
2023-01-25T03:40:33.538Z,2.25
2023-01-25T03:43:58.830Z,2.26
2023-01-25T03:47:24.120Z,2.34
2023-01-25T03:50:49.372Z,2.42
2023-01-25T03:54:14.694Z,2.49
2023-01-25T03:57:39.956Z,2.47
2023-01-25T04:01:05.374Z,2.51
2023-01-25T04:04:30.568Z,2.56
2023-01-25T04:07:55.865Z,2.59
2023-01-25T04:11:21.193Z,2.58
2023-01-25T04:14:46.445Z,2.58
2023-01-25T04:18:11.776Z,2.56
2023-01-25T04:21:37.059Z,2.59
2023-01-25T04:25:02.341Z,2.55
2023-01-25T04:28:27.647Z,2.46
2023-01-25T04:31:53.057Z,2.41
2023-01-25T04:35:18.220Z,2.4
2023-01-25T04:38:43.708Z,2.4
2023-01-25T04:42:29.190Z,2.43
2023-01-25T04:45:54.502Z,2.48
2023-01-25T04:49:19.719Z,2.47
2023-01-25T04:52:45.011Z,2.44
2023-01-25T04:56:10.281Z,2.49
2023-01-25T04:59:35.524Z,2.51
2023-01-25T05:03:00.792Z,2.54
2023-01-25T05:06:26.011Z,2.55
2023-01-25T05:09:51.248Z,2.56
2023-01-25T05:13:16.476Z,2.63
2023-01-25T05:16:41.840Z,2.71
2023-01-25T05:20:07.060Z,2.72
2023-01-25T05:23:32.270Z,2.7
2023-01-25T05:26:57.605Z,2.71
2023-01-25T05:30:22.901Z,2.73
2023-01-25T05:33:55.001Z,2.75
2023-01-25T05:37:20.304Z,2.75
2023-01-25T05:40:45.507Z,2.77
2023-01-25T05:44:10.747Z,2.78
2023-01-25T05:47:35.980Z,2.74
2023-01-25T05:51:01.223Z,2.75
2023-01-25T05:54:26.491Z,2.75
2023-01-25T05:57:51.731Z,2.79
2023-01-25T06:01:16.965Z,2.84
2023-01-25T06:04:42.206Z,2.9
2023-01-25T06:08:07.450Z,2.97
2023-01-25T06:11:32.726Z,2.98
2023-01-25T06:14:57.975Z,2.88
2023-01-25T06:18:23.244Z,2.86
2023-01-25T06:21:48.550Z,2.91
2023-01-25T06:25:13.925Z,2.95
2023-01-25T06:28:39.191Z,3.01
2023-01-25T06:32:04.480Z,3.03
2023-01-25T06:35:29.699Z,2.98
2023-01-25T06:38:55.031Z,2.96
2023-01-25T06:42:20.337Z,2.93
2023-01-25T06:45:45.768Z,2.92
2023-01-25T06:49:11.031Z,2.91
2023-01-25T06:52:36.296Z,2.94
2023-01-25T06:56:01.611Z,2.99
2023-01-25T06:59:26.850Z,3.01
2023-01-25T07:02:52.198Z,3.05
2023-01-25T07:06:17.384Z,3.1
2023-01-25T07:09:42.691Z,3.14
2023-01-25T07:13:07.924Z,3.17
2023-01-25T07:16:33.208Z,3.19
2023-01-25T07:19:58.612Z,3.23
2023-01-25T07:23:23.878Z,3.22
2023-01-25T07:26:49.199Z,3.2
2023-01-25T07:30:14.497Z,3.19
2023-01-25T07:33:39.808Z,3.19
2023-01-25T07:37:05.112Z,3.19
2023-01-25T07:40:30.415Z,3.21
2023-01-25T07:43:55.745Z,3.26
2023-01-25T07:47:21.024Z,3.25
2023-01-25T07:50:46.391Z,3.2
2023-01-25T07:54:11.721Z,3.19
2023-01-25T07:57:36.990Z,3.17
2023-01-25T08:01:02.353Z,3.13
2023-01-25T08:04:27.703Z,3.07
2023-01-25T08:07:53.030Z,3.07
2023-01-25T08:11:18.344Z,3.11
2023-01-25T08:14:43.591Z,3.2
2023-01-25T08:18:08.852Z,3.29
2023-01-25T08:21:34.190Z,3.38
2023-01-25T08:24:59.448Z,3.46
2023-01-25T08:28:24.888Z,3.46
2023-01-25T08:31:50.118Z,3.54
2023-01-25T08:35:16.204Z,3.61
2023-01-25T08:38:40.723Z,3.68
2023-01-25T08:42:05.997Z,3.71
2023-01-25T08:45:31.956Z,3.76
2023-01-25T08:48:57.218Z,3.77
2023-01-25T08:52:23.015Z,3.85
2023-01-25T08:55:47.892Z,3.92
2023-01-25T08:59:13.181Z,3.94
2023-01-25T09:02:38.497Z,4
2023-01-25T09:06:03.730Z,4.07
2023-01-25T09:09:29.060Z,4.1
2023-01-25T09:12:54.437Z,4.18
2023-01-25T09:16:19.780Z,4.23
2023-01-25T09:19:45.267Z,4.28
2023-01-25T09:23:10.515Z,4.33
2023-01-25T09:26:35.792Z,4.35
2023-01-25T09:30:03.137Z,4.35
2023-01-25T09:33:26.301Z,4.41
2023-01-25T09:36:51.887Z,4.45
2023-01-25T09:40:17.109Z,4.47
2023-01-25T09:43:42.344Z,4.51
2023-01-25T09:47:07.844Z,4.56
2023-01-25T09:50:33.105Z,4.65
2023-01-25T09:53:58.397Z,4.71
2023-01-25T09:57:23.623Z,4.72
2023-01-25T10:00:48.867Z,4.68
2023-01-25T10:04:14.115Z,4.73
2023-01-25T10:07:39.369Z,4.79
2023-01-25T10:11:04.634Z,4.8
2023-01-25T10:14:29.857Z,4.85
2023-01-25T10:17:55.114Z,4.83
2023-01-25T10:21:20.415Z,4.8
2023-01-25T10:24:45.664Z,4.81
2023-01-25T10:28:10.963Z,4.86
2023-01-25T10:31:36.162Z,4.86
2023-01-25T10:35:01.380Z,4.92
2023-01-25T10:38:26.643Z,4.98
2023-01-25T10:41:52.483Z,5.05
2023-01-25T10:45:17.769Z,5.09
2023-01-25T10:48:42.972Z,5.13
2023-01-25T10:52:08.437Z,5.17
2023-01-25T10:55:33.687Z,5.17
2023-01-25T10:58:58.994Z,5.14
2023-01-25T11:02:24.884Z,5.15
2023-01-25T11:05:50.088Z,5.11
2023-01-25T11:09:15.356Z,5.09
2023-01-25T11:12:40.622Z,5.08
2023-01-25T11:16:05.951Z,5
2023-01-25T11:19:31.308Z,5
2023-01-25T11:22:56.582Z,5.03
2023-01-25T11:26:24.328Z,5.02
2023-01-25T11:29:49.595Z,5
2023-01-25T11:33:14.901Z,5
2023-01-25T11:36:40.317Z,5.03
2023-01-25T11:40:05.532Z,5.15
2023-01-25T11:43:30.778Z,5.26
2023-01-25T11:46:56.101Z,5.35
2023-01-25T11:50:21.375Z,5.34
2023-01-25T11:53:46.628Z,5.3
2023-01-25T11:57:18.956Z,5.26
2023-01-25T12:00:44.231Z,5.24
2023-01-25T12:04:09.557Z,5.24
2023-01-25T12:07:34.764Z,5.31
2023-01-25T12:11:00.098Z,5.4
2023-01-25T12:14:25.373Z,5.39
2023-01-25T12:17:50.633Z,5.36
2023-01-25T12:21:23.034Z,5.41
2023-01-25T12:24:41.150Z,5.44
2023-01-25T12:28:06.442Z,5.42
2023-01-25T12:31:31.753Z,5.4
2023-01-25T12:34:58.152Z,5.36
2023-01-25T12:38:23.424Z,5.3
2023-01-25T12:41:48.715Z,5.28
2023-01-25T12:45:14.005Z,5.25
2023-01-25T12:48:39.228Z,5.24
2023-01-25T12:52:04.476Z,5.22
2023-01-25T12:55:29.750Z,5.26
2023-01-25T12:58:55.006Z,5.28
2023-01-25T13:02:20.390Z,5.31
2023-01-25T13:05:45.497Z,5.28
2023-01-25T13:09:10.767Z,5.23
2023-01-25T13:12:36.003Z,5.19
2023-01-25T13:16:01.283Z,5.24
2023-01-25T13:19:26.549Z,5.27
2023-01-25T13:22:51.836Z,5.33
2023-01-25T13:26:17.081Z,5.31
2023-01-25T13:29:42.383Z,5.28
2023-01-25T13:33:07.833Z,5.35
2023-01-25T13:36:32.951Z,5.45
2023-01-25T13:39:58.173Z,5.49
2023-01-25T13:43:23.907Z,5.49
2023-01-25T13:46:49.165Z,5.47
2023-01-25T13:50:14.517Z,5.38
2023-01-25T13:53:40.059Z,5.35
2023-01-25T13:57:05.291Z,5.35
2023-01-25T14:00:30.634Z,5.3
2023-01-25T14:03:55.905Z,5.1
2023-01-25T14:07:21.275Z,4.91
2023-01-25T14:10:46.631Z,4.86
2023-01-25T14:14:11.868Z,4.8
2023-01-25T14:17:37.187Z,4.76
2023-01-25T14:21:02.890Z,4.78
2023-01-25T14:24:28.178Z,4.78
2023-01-25T14:27:53.474Z,4.75
2023-01-25T15:03:31.439Z,2.23
2023-01-25T15:06:59.010Z,3.06
2023-01-25T15:10:22.074Z,3.14
2023-01-25T15:13:47.394Z,3.29
2023-01-25T15:17:12.698Z,3.47
2023-01-25T15:20:38.001Z,3.65
2023-01-25T15:24:03.321Z,3.83
2023-01-25T15:27:28.538Z,3.94
2023-01-25T15:30:53.913Z,3.98
2023-01-25T15:34:19.151Z,3.99
2023-01-25T15:37:44.461Z,3.97
2023-01-25T15:41:09.776Z,3.92
2023-01-25T15:44:35.111Z,3.9
2023-01-25T15:48:00.405Z,3.9
2023-01-25T15:51:25.682Z,3.92
2023-01-25T15:54:56.106Z,3.93
2023-01-25T15:58:16.313Z,3.96
2023-01-25T16:01:41.611Z,3.96
2023-01-25T16:05:06.875Z,3.96
2023-01-25T16:08:32.385Z,3.92
2023-01-25T16:11:57.699Z,3.89
2023-01-25T16:15:22.931Z,3.86
2023-01-25T16:18:48.179Z,3.84
2023-01-25T16:22:13.444Z,3.86
2023-01-25T16:25:38.704Z,3.89
2023-01-25T16:29:03.965Z,3.9
2023-01-25T16:32:29.245Z,3.88
2023-01-25T16:35:54.517Z,3.86
2023-01-25T16:39:19.786Z,3.84
2023-01-25T16:42:45.032Z,3.81
2023-01-25T16:46:10.454Z,3.85
2023-01-25T16:49:35.667Z,3.85
2023-01-25T16:53:00.983Z,3.85
2023-01-25T16:56:26.280Z,3.86
2023-01-25T16:59:51.698Z,3.82
2023-01-25T17:03:16.999Z,3.8
2023-01-25T17:06:43.360Z,3.76
2023-01-25T17:10:09.187Z,3.63
2023-01-25T17:13:34.067Z,3.54
2023-01-25T17:16:59.415Z,3.52
2023-01-25T17:20:24.797Z,3.46
2023-01-25T17:23:50.043Z,3.42
2023-01-25T17:27:15.361Z,3.41
2023-01-25T17:30:40.750Z,3.27
2023-01-25T17:34:05.936Z,3.22
2023-01-25T17:37:31.254Z,3.23
2023-01-25T17:40:56.559Z,3.24
2023-01-25T17:44:21.844Z,3.25
2023-01-25T17:47:47.124Z,3.27
2023-01-25T17:51:12.441Z,3.26
2023-01-25T17:54:37.792Z,3.25
2023-01-25T17:58:03.067Z,3.25
2023-01-25T18:01:28.444Z,3.19
2023-01-25T18:04:53.664Z,3.16
2023-01-25T18:08:18.949Z,3.14
2023-01-25T18:11:44.246Z,3.14
2023-01-25T18:15:09.838Z,3.15
2023-01-25T18:18:34.800Z,3.16
2023-01-25T18:22:00.139Z,3.15
2023-01-25T18:25:25.348Z,3.16
2023-01-25T18:28:52.058Z,3.16
2023-01-25T18:32:15.958Z,3.16
2023-01-25T18:35:41.249Z,3.14
2023-01-25T18:39:06.556Z,3.01
2023-01-25T18:42:31.826Z,2.87
2023-01-25T18:45:57.133Z,2.84
2023-01-25T18:49:22.383Z,2.86
2023-01-25T18:52:47.625Z,2.86
2023-01-25T18:56:12.878Z,2.87
2023-01-25T18:59:38.160Z,2.9
2023-01-25T19:03:03.469Z,2.98
2023-01-25T19:06:28.700Z,3.03
2023-01-25T19:09:53.998Z,3.06
2023-01-25T19:13:19.295Z,2.97
2023-01-25T19:16:44.616Z,2.86
2023-01-25T19:20:09.901Z,2.81
2023-01-25T19:23:35.170Z,2.78
2023-01-25T19:27:00.457Z,2.77
2023-01-25T19:30:25.712Z,2.74
2023-01-25T19:33:50.984Z,2.73
2023-01-25T19:37:16.253Z,2.74
2023-01-25T19:40:41.501Z,2.77
2023-01-25T19:44:06.814Z,2.77
2023-01-25T19:47:32.092Z,2.73
2023-01-25T19:50:57.385Z,2.61
2023-01-25T19:54:22.718Z,2.63
2023-01-25T19:57:47.990Z,2.7
2023-01-25T20:01:13.246Z,2.76
2023-01-25T20:04:38.512Z,2.82
2023-01-25T20:08:03.761Z,2.88
2023-01-25T20:11:29.074Z,2.92
2023-01-25T20:14:54.309Z,2.93
2023-01-25T20:18:19.601Z,2.93
2023-01-25T20:21:44.848Z,2.98
2023-01-25T20:25:10.428Z,3.02
2023-01-25T20:28:35.384Z,3.02
2023-01-25T20:32:00.676Z,3.03
2023-01-25T20:35:25.908Z,3.01
2023-01-25T20:38:51.682Z,2.98
2023-01-25T20:42:16.956Z,3.02
2023-01-25T20:45:42.231Z,3.02
2023-01-25T20:49:07.491Z,2.99
2023-01-25T20:52:32.748Z,2.95
2023-01-25T20:55:58.071Z,2.9
2023-01-25T20:59:23.359Z,2.9
2023-01-25T21:02:48.650Z,2.92
2023-01-25T21:06:13.894Z,2.87
2023-01-25T21:09:40.824Z,2.83
2023-01-25T21:13:04.442Z,2.8
2023-01-25T21:16:29.740Z,2.76
2023-01-25T21:19:55.020Z,2.78
2023-01-25T21:23:20.252Z,2.79
2023-01-25T21:26:45.514Z,2.79
2023-01-25T21:30:10.784Z,2.8
2023-01-25T21:33:36.045Z,2.8
2023-01-25T21:37:01.318Z,2.73
2023-01-25T21:40:26.538Z,2.54
2023-01-25T21:43:52.316Z,2.48
2023-01-25T21:47:29.767Z,2.37
2023-01-25T21:50:42.832Z,2.26
2023-01-25T21:54:08.099Z,2.21
2023-01-25T21:57:33.346Z,2.13
2023-01-25T22:00:58.598Z,2.09
2023-01-25T22:04:23.872Z,2.09
2023-01-25T22:07:49.097Z,2.03
2023-01-25T22:11:14.378Z,2.05
2023-01-25T22:14:39.592Z,2.12
2023-01-25T22:18:04.864Z,2.2
2023-01-25T22:21:30.172Z,2.31
2023-01-25T22:24:55.480Z,2.42
2023-01-25T22:28:20.773Z,2.51
2023-01-25T22:31:46.024Z,2.6
2023-01-25T22:35:11.255Z,2.68
2023-01-25T22:38:36.494Z,2.75
2023-01-25T22:42:01.741Z,2.76
2023-01-25T22:45:27.039Z,2.76
2023-01-25T22:48:52.280Z,2.75
2023-01-25T22:52:17.560Z,2.77
2023-01-25T22:55:42.827Z,2.77
2023-01-25T22:59:08.150Z,2.75
2023-01-25T23:02:33.441Z,2.74
2023-01-25T23:05:58.681Z,2.76
2023-01-25T23:09:23.936Z,2.78
2023-01-25T23:12:49.191Z,2.78
2023-01-25T23:16:14.469Z,2.82
2023-01-25T23:19:39.752Z,2.79
2023-01-25T23:23:04.969Z,2.81
2023-01-25T23:26:30.221Z,2.8
2023-01-25T23:29:55.456Z,2.77
2023-01-25T23:33:20.752Z,2.66
2023-01-25T23:36:46.033Z,2.6
2023-01-25T23:40:11.533Z,2.59
2023-01-25T23:43:36.556Z,2.6
2023-01-25T23:47:01.820Z,2.63
2023-01-25T23:50:27.079Z,2.7
2023-01-25T23:53:52.352Z,2.71
2023-01-25T23:57:17.570Z,2.7
